Time;durP1;ratioP1;P1;durP2;ratioP2;P2;SDS_P1;SDS_P2;PMS_P1;PMS_P2;Temp;Humidity;BMP_temperature;BMP_pressure;BME280_temperature;BME280_humidity;BME280_pressure;Samples;Min_cycle;Max_cycle;Signal;HPM_P1;HPM_P2
2023/12/02 07:01:32;;;;;;;0.60;0.60;;;0.10;99.90;3.40;100921.00;;;;6209823;22;1523795;-64
2023/12/02 07:04:00;;;;;;;0.83;0.83;;;0.30;99.90;3.40;100970.00;;;;6251514;22;20623;-64
2023/12/02 07:06:34;;;;;;;1.67;1.63;;;0.30;99.90;3.60;100974.00;;;;6277200;22;20151;-65
2023/12/02 07:09:00;;;;;;;0.40;0.40;;;0.50;99.90;3.10;100984.00;;;;6276920;22;20148;-63
2023/12/02 07:11:26;;;;;;;0.63;0.63;;;0.40;99.90;2.80;100992.00;;;;6277612;22;20870;-64
2023/12/02 07:13:52;;;;;;;1.13;1.13;;;0.10;99.90;1.60;100985.00;;;;6277138;22;20224;-64
2023/12/02 07:16:21;;;;;;;2.87;2.53;;;-0.40;99.90;1.90;100993.00;;;;6276403;22;20169;-64
2023/12/02 07:18:47;;;;;;;5.30;4.97;;;-0.50;99.90;1.30;100991.00;;;;6278162;22;20464;-64
2023/12/02 07:21:13;;;;;;;0.40;0.40;;;-0.70;99.90;1.40;100984.00;;;;6277067;22;20145;-64
2023/12/02 07:23:43;;;;;;;0.30;0.30;;;-0.80;99.90;1.80;100987.00;;;;6278209;22;20168;-64
2023/12/02 07:26:10;;;;;;;0.80;0.80;;;-0.80;99.90;2.30;101015.00;;;;6277485;22;20137;-64
2023/12/02 07:28:39;;;;;;;1.93;1.83;;;-0.50;99.90;2.60;101018.00;;;;6276013;22;20154;-64
2023/12/02 07:31:15;;;;;;;1.03;1.03;;;-0.30;99.90;2.80;101015.00;;;;6276430;22;20225;-64
2023/12/02 07:33:41;;;;;;;2.30;2.10;;;-0.20;99.90;3.10;101003.00;;;;6278406;22;20145;-64
2023/12/02 07:36:08;;;;;;;0.40;0.40;;;0.00;99.90;2.30;101026.00;;;;6251378;22;20164;-63
2023/12/02 07:38:47;;;;;;;2.33;2.23;;;-0.20;99.90;2.00;101018.00;;;;6275925;22;20153;-64
2023/12/02 07:41:13;;;;;;;1.93;1.83;;;-0.40;99.90;1.60;100962.00;;;;6276030;22;20235;-64
2023/12/02 07:43:45;;;;;;;1.67;1.57;;;-0.50;99.90;2.00;101019.00;;;;6277606;22;20278;-64
2023/12/02 07:46:19;;;;;;;0.80;0.80;;;-0.60;99.90;2.10;101018.00;;;;6251242;22;20235;-63
2023/12/02 07:48:50;;;;;;;0.87;0.87;;;-0.60;99.90;2.30;101026.00;;;;6276754;22;20180;-63
2023/12/02 07:51:22;;;;;;;0.60;0.60;;;-0.50;99.90;2.60;101033.00;;;;6275984;22;20137;-63
2023/12/02 07:53:51;;;;;;;1.17;1.17;;;-0.40;99.90;2.70;101023.00;;;;6276801;22;20148;-64
2023/12/02 07:56:20;;;;;;;0.50;0.50;;;-0.20;99.90;2.70;101033.00;;;;6276191;22;20171;-64
2023/12/02 07:59:00;;;;;;;1.37;1.33;;;-0.20;99.90;2.60;101034.00;;;;6250192;22;20149;-64
2023/12/02 08:01:32;;;;;;;0.70;0.70;;;-0.30;99.90;2.10;101048.00;;;;6276178;22;20619;-64
2023/12/02 08:04:25;;;;;;;1.40;1.40;;;-0.40;99.90;2.30;101024.00;;;;6250229;22;20263;-63
2023/12/02 08:06:54;;;;;;;0.60;0.60;;;-0.40;99.90;2.80;101029.00;;;;6250486;22;20198;-64
2023/12/02 08:09:23;;;;;;;0.30;0.30;;;-0.30;99.90;2.10;101043.00;;;;6278097;22;20140;-63
2023/12/02 08:12:12;;;;;;;1.50;1.43;;;-0.40;99.90;2.00;101045.00;;;;6277969;22;20581;-63
2023/12/02 08:15:00;;;;;;;0.30;0.30;;;-0.30;99.90;1.90;101036.00;;;;6275529;22;20196;-63
2023/12/02 08:17:30;;;;;;;0.30;0.30;;;-0.50;99.90;2.70;101032.00;;;;6276186;22;20167;-63
2023/12/02 08:19:58;;;;;;;0.37;0.37;;;-0.30;99.90;2.50;101059.00;;;;6251551;22;20205;-64
2023/12/02 08:22:31;;;;;;;4.70;2.53;;;-0.30;99.90;2.00;101063.00;;;;6276436;22;20223;-63
2023/12/02 08:25:13;;;;;;;2.20;2.10;;;-0.20;99.90;2.00;101065.00;;;;6275603;22;20627;-63
2023/12/02 08:27:39;;;;;;;0.90;0.90;;;-0.40;99.90;2.70;101070.00;;;;6277825;22;20726;-63
2023/12/02 08:30:07;;;;;;;1.50;1.50;;;-0.10;99.90;2.50;101071.00;;;;6277635;22;20141;-64
2023/12/02 08:32:46;;;;;;;0.30;0.30;;;-0.20;99.90;2.10;101084.00;;;;6276304;22;20153;-63
2023/12/02 08:35:18;;;;;;;0.60;0.60;;;-0.20;99.90;2.70;101048.00;;;;6276736;22;20176;-64
2023/12/02 08:37:51;;;;;;;1.13;1.13;;;-0.10;99.90;2.30;101080.00;;;;6276980;22;20141;-64
2023/12/02 08:40:23;;;;;;;4.77;4.37;;;-0.10;99.90;2.70;101081.00;;;;6251023;22;20156;-63
2023/12/02 08:42:49;;;;;;;2.37;2.27;;;0.00;99.90;3.10;101073.00;;;;6276010;22;20597;-64
2023/12/02 08:45:23;;;;;;;0.60;0.60;;;0.30;99.90;3.80;101089.00;;;;6277716;22;20144;-64
2023/12/02 08:47:54;;;;;;;0.40;0.40;;;0.60;99.90;3.30;101102.00;;;;6277355;22;20157;-64
2023/12/02 08:50:26;;;;;;;0.30;0.30;;;0.70;99.90;3.90;101054.00;;;;6276347;22;20141;-63
2023/12/02 08:52:52;;;;;;;2.20;2.00;;;1.00;99.90;3.70;101096.00;;;;6277259;22;20149;-64
2023/12/02 08:55:18;;;;;;;0.67;0.67;;;1.00;99.90;3.00;101102.00;;;;6277713;22;20151;-63
2023/12/02 08:57:47;;;;;;;0.30;0.30;;;0.70;99.90;3.00;101100.00;;;;6275882;22;20169;-63
2023/12/02 09:00:26;;;;;;;1.50;1.40;;;0.70;99.90;3.90;101111.00;;;;6275523;22;20175;-63
2023/12/02 09:03:04;;;;;;;1.30;1.20;;;0.90;99.90;1.70;101105.00;;;;6275984;22;20192;-63
2023/12/02 09:05:30;;;;;;;0.30;0.30;;;0.30;99.90;3.90;101105.00;;;;6275663;22;20220;-64
2023/12/02 09:08:17;;;;;;;1.73;1.63;;;0.70;99.90;2.70;101106.00;;;;6275271;22;20161;-64
2023/12/02 09:10:52;;;;;;;0.37;0.37;;;0.60;99.90;2.30;101075.00;;;;6250007;22;20573;-63
2023/12/02 09:13:40;;;;;;;1.90;1.70;;;0.30;99.90;2.90;101100.00;;;;6275522;22;20141;-63
2023/12/02 09:16:29;;;;;;;1.90;1.33;;;0.40;99.90;2.20;101093.00;;;;6276643;22;20138;-63
2023/12/02 09:18:58;;;;;;;2.20;2.00;;;0.30;99.90;3.20;101116.00;;;;6276969;22;20141;-63
2023/12/02 09:21:44;;;;;;;0.30;0.30;;;0.50;99.90;2.80;101113.00;;;;6249000;22;20195;-64
2023/12/02 09:24:40;;;;;;;0.63;0.63;;;0.60;99.90;2.80;101117.00;;;;6275666;22;20144;-64
2023/12/02 09:27:07;;;;;;;2.53;1.50;;;0.50;99.90;3.80;101138.00;;;;6250334;22;20148;-67
2023/12/02 09:29:40;;;;;;;0.20;0.20;;;0.90;99.90;5.00;101141.00;;;;6249683;22;20153;-63
2023/12/02 09:32:45;;;;;;;3.93;2.97;;;1.40;99.90;2.60;101093.00;;;;6277286;22;20137;-64
2023/12/02 09:35:11;;;;;;;0.30;0.30;;;1.10;99.90;3.40;101141.00;;;;6274616;22;20137;-64
2023/12/02 09:38:04;;;;;;;1.60;1.03;;;1.00;99.90;4.30;101105.00;;;;6274973;22;20153;-64
2023/12/02 09:41:09;;;;;;;3.40;3.13;;;1.20;99.90;2.90;101145.00;;;;6275773;22;20522;-64
2023/12/02 09:44:04;;;;;;;2.77;2.67;;;1.00;99.90;2.50;101138.00;;;;6277059;22;20172;-63
2023/12/02 09:47:01;;;;;;;2.47;2.27;;;0.60;99.90;2.10;101134.00;;;;6275568;22;20164;-63
2023/12/02 09:49:55;;;;;;;4.83;3.27;;;0.50;99.90;1.20;101126.00;;;;6274478;22;20474;-63
2023/12/02 09:52:57;;;;;;;8.80;7.10;;;0.20;99.90;1.20;101120.00;;;;6273956;22;20196;-63
2023/12/02 09:56:05;;;;;;;1.23;1.23;;;0.00;99.90;1.80;101112.00;;;;6273647;22;20160;-63
2023/12/02 09:58:42;;;;;;;5.47;4.50;;;0.10;99.90;2.50;101128.00;;;;6249467;22;20204;-64
2023/12/02 10:01:21;;;;;;;10.07;6.77;;;0.70;99.90;1.40;101079.00;;;;6277147;22;20156;-63
2023/12/02 10:04:59;;;;;;;6.90;3.60;;;0.40;99.90;1.60;101118.00;;;;6276721;22;20171;-63
2023/12/02 10:07:54;;;;;;;6.80;3.20;;;0.30;99.90;2.80;101119.00;;;;6152260;23;20504;-64
2023/12/02 10:10:26;;;;;;;8.87;6.67;;;0.50;99.90;2.70;101073.00;;;;6146990;23;20282;-64
2023/12/02 10:13:12;;;;;;;6.13;4.57;;;0.80;99.90;2.00;101122.00;;;;6235380;22;20168;-64
2023/12/02 10:16:05;;;;;;;6.50;5.57;;;0.60;99.90;1.70;101118.00;;;;6249921;22;20210;-64
2023/12/02 10:18:37;;;;;;;17.90;11.33;;;0.50;99.90;2.10;101113.00;;;;6247950;22;20185;-64
2023/12/02 10:33:35;;;;;;;20.47;13.87;;;0.60;99.90;1.60;101081.00;;;;4924214;27;4254828;-67
2023/12/02 10:36:10;;;;;;;17.43;9.30;;;0.50;99.90;1.60;101085.00;;;;5019772;28;20178;-67
2023/12/02 10:39:09;;;;;;;6.57;5.93;;;0.60;99.90;1.80;101102.00;;;;5044683;28;20633;-67
2023/12/02 10:42:07;;;;;;;22.57;10.40;;;0.60;99.90;2.20;101111.00;;;;5026353;28;20210;-67
2023/12/02 10:44:34;;;;;;;15.77;6.33;;;0.70;99.90;2.00;101073.00;;;;5036913;28;20190;-67
2023/12/02 10:47:08;;;;;;;10.10;6.27;;;0.90;99.90;2.30;101109.00;;;;5045330;28;20210;-67
2023/12/02 10:49:39;;;;;;;1.97;1.87;;;0.80;99.90;2.80;101125.00;;;;5029482;28;20268;-67
2023/12/02 10:52:54;;;;;;;0.63;0.63;;;1.10;99.90;5.00;101126.00;;;;5048973;28;20198;-67
2023/12/02 10:55:46;;;;;;;0.67;0.67;;;1.70;99.90;5.70;101160.00;;;;5028724;28;20179;-67
2023/12/02 10:58:32;;;;;;;2.00;1.93;;;2.60;99.90;5.40;101163.00;;;;5049024;28;20189;-67
2023/12/02 11:01:09;;;;;;;1.30;1.23;;;3.00;99.90;4.90;101150.00;;;;5051089;28;20222;-67
2023/12/02 11:04:19;;;;;;;1.30;1.27;;;2.70;99.90;6.10;101162.00;;;;5048115;28;20599;-67
2023/12/02 11:07:07;;;;;;;8.87;6.77;;;3.20;99.90;7.40;101173.00;;;;5028427;28;20194;-68
2023/12/02 11:09:50;;;;;;;2.93;2.77;;;4.10;99.90;5.70;101174.00;;;;5043051;28;20207;-67
2023/12/02 11:13:05;;;;;;;8.30;4.37;;;3.60;99.90;4.30;101154.00;;;;5034328;28;20262;-65
2023/12/02 11:16:07;;;;;;;1.07;0.93;;;2.60;99.90;6.00;101171.00;;;;5059171;28;20198;-66
2023/12/02 11:19:44;;;;;;;2.43;2.33;;;3.10;99.90;6.20;101163.00;;;;5044579;28;20563;-66
2023/12/02 11:22:36;;;;;;;0.20;0.20;;;3.50;99.90;7.80;101172.00;;;;5017695;28;20257;-67
2023/12/02 11:25:37;;;;;;;2.53;1.70;;;4.30;99.90;8.50;101188.00;;;;5028882;28;20188;-66
2023/12/02 11:28:40;;;;;;;0.53;0.53;;;5.00;99.90;7.90;101234.00;;;;5041268;28;20188;-65
2023/12/02 11:31:36;;;;;;;0.43;0.43;;;5.20;99.90;8.30;101223.00;;;;5031687;28;20207;-65
2023/12/02 11:34:13;;;;;;;0.50;0.50;;;5.00;99.90;7.90;101263.00;;;;5021292;28;20652;-66
2023/12/02 11:36:53;;;;;;;3.20;2.90;;;5.30;99.90;6.20;101253.00;;;;5025564;28;20275;-65
2023/12/02 11:39:39;;;;;;;2.77;2.47;;;3.90;99.90;5.60;101252.00;;;;5026282;28;20206;-65
2023/12/02 11:42:51;;;;;;;12.13;3.37;;;3.90;99.90;4.50;101207.00;;;;5018014;28;20666;-65
2023/12/02 11:45:48;;;;;;;1.70;1.03;;;3.00;99.90;4.50;101169.00;;;;5009979;28;20190;-65
2023/12/02 11:49:03;;;;;;;3.37;3.27;;;2.50;99.90;5.90;101139.00;;;;4993221;28;20204;-65
2023/12/02 11:52:14;;;;;;;5.83;5.23;;;3.10;99.90;5.30;101168.00;;;;5003072;28;20603;-65
2023/12/02 11:55:36;;;;;;;2.17;1.90;;;3.00;99.90;5.90;101173.00;;;;5014163;28;20187;-66
2023/12/02 11:58:21;;;;;;;4.60;3.07;;;3.40;99.90;5.10;101169.00;;;;4984750;28;20192;-65
2023/12/02 12:01:20;;;;;;;11.27;6.07;;;3.10;99.90;3.80;101149.00;;;;5010571;28;20185;-65
2023/12/02 12:04:42;;;;;;;13.97;6.53;;;2.50;99.90;4.50;101156.00;;;;5010855;28;20187;-66
2023/12/02 12:07:35;;;;;;;0.10;0.10;;;2.50;99.90;5.30;101163.00;;;;4969014;28;20607;-66
2023/12/02 12:10:42;;;;;;;0.20;0.20;;;2.80;99.90;6.20;101176.00;;;;5015661;28;20187;-66
2023/12/02 12:13:30;;;;;;;4.50;3.73;;;3.40;99.90;4.80;101175.00;;;;5011399;28;20290;-66
2023/12/02 12:16:37;;;;;;;15.03;6.77;;;3.40;99.90;4.90;101170.00;;;;5006276;28;20186;-66
2023/12/02 12:19:03;;;;;;;3.40;1.37;;;3.10;99.90;5.10;101169.00;;;;4995060;28;20196;-67
2023/12/02 12:21:29;;;;;;;4.30;4.03;;;3.10;99.90;5.90;101168.00;;;;4986390;28;20667;-65
2023/12/02 12:24:52;;;;;;;5.30;3.50;;;3.30;99.90;5.90;101182.00;;;;4997901;28;20205;-65
2023/12/02 12:27:41;;;;;;;2.00;1.50;;;3.60;99.90;6.50;101181.00;;;;5007731;28;20279;-65
2023/12/02 12:30:18;;;;;;;1.90;1.83;;;3.70;99.90;6.80;101190.00;;;;4999100;28;20205;-66
2023/12/02 12:32:44;;;;;;;7.33;4.93;;;3.90;99.90;5.00;101199.00;;;;5010931;28;20242;-66
2023/12/02 12:35:23;;;;;;;5.43;3.10;;;3.40;99.90;4.40;101172.00;;;;5017155;28;20237;-66
2023/12/02 12:38:07;;;;;;;0.40;0.40;;;2.90;99.90;6.10;101186.00;;;;5031751;28;20209;-66
2023/12/02 12:40:43;;;;;;;0.83;0.83;;;3.20;99.90;7.80;101203.00;;;;5014620;28;20283;-66
2023/12/02 12:43:19;;;;;;;0.10;0.10;;;4.10;99.90;7.60;101213.00;;;;5033280;28;20178;-66
2023/12/02 12:45:56;;;;;;;3.37;2.73;;;4.20;99.90;8.10;101228.00;;;;5015972;28;20192;-66
2023/12/02 12:48:26;;;;;;;1.03;0.83;;;4.90;99.90;7.80;101245.00;;;;5016159;28;20193;-66
2023/12/02 12:51:09;;;;;;;3.13;3.03;;;4.90;99.90;6.70;101276.00;;;;5012745;28;20231;-66
2023/12/02 12:53:57;;;;;;;2.33;1.50;;;4.70;99.90;7.20;101251.00;;;;5019668;28;20208;-66
2023/12/02 12:56:57;;;;;;;0.97;0.97;;;4.30;99.90;7.00;101252.00;;;;5032573;28;20189;-66
2023/12/02 12:59:34;;;;;;;0.10;0.10;;;4.40;99.90;6.70;101252.00;;;;5012623;28;20283;-65
2023/12/02 13:03:01;;;;;;;0.90;0.90;;;4.10;99.90;7.80;101243.00;;;;5017728;28;20196;-66
2023/12/02 13:05:44;;;;;;;0.60;0.60;;;4.20;99.90;7.20;101261.00;;;;4975633;28;20227;-67
2023/12/02 13:08:49;;;;;;;4.13;3.83;;;4.40;99.90;6.80;101269.00;;;;4972329;28;20276;-66
2023/12/02 13:11:22;;;;;;;0.40;0.40;;;4.20;99.90;6.70;101252.00;;;;4968112;28;20199;-66
2023/12/02 13:14:06;;;;;;;0.53;0.53;;;3.90;99.90;6.40;101238.00;;;;5022354;28;20203;-66
2023/12/02 13:16:37;;;;;;;3.70;2.97;;;3.80;99.90;6.20;101245.00;;;;5032564;28;20264;-66
2023/12/02 13:19:44;;;;;;;3.43;2.33;;;3.80;99.90;5.60;101251.00;;;;5031898;28;20236;-66
2023/12/02 13:22:59;;;;;;;5.77;3.33;;;3.90;99.90;5.80;101241.00;;;;5030524;28;20218;-66
2023/12/02 13:25:29;;;;;;;0.10;0.10;;;3.70;99.90;6.50;101241.00;;;;4989748;28;20190;-66
2023/12/02 13:28:12;;;;;;;2.57;2.43;;;3.80;99.90;5.60;101241.00;;;;5021652;28;20317;-66
2023/12/02 13:31:31;;;;;;;0.30;0.30;;;3.60;99.90;5.30;101223.00;;;;5043193;28;20182;-65
2023/12/02 13:34:07;;;;;;;5.93;3.60;;;3.40;99.90;6.90;101243.00;;;;5027539;28;20267;-66
2023/12/02 13:36:48;;;;;;;0.10;0.10;;;3.80;99.90;6.60;101235.00;;;;5012505;28;20188;-66
2023/12/02 13:39:39;;;;;;;1.60;1.60;;;3.70;99.90;5.80;101195.00;;;;4997485;28;20233;-66
2023/12/02 13:42:29;;;;;;;0.10;0.10;;;3.50;99.90;6.80;101250.00;;;;5006804;28;20554;-66
2023/12/02 13:45:05;;;;;;;4.50;3.53;;;3.90;99.90;6.00;101263.00;;;;5006523;28;20627;-66
2023/12/02 13:47:49;;;;;;;8.27;7.17;;;3.90;99.90;5.80;101264.00;;;;4995216;28;20188;-66
2023/12/02 13:50:42;;;;;;;1.50;1.40;;;3.70;99.90;5.10;101267.00;;;;5015897;28;20195;-66
2023/12/02 13:53:47;;;;;;;0.90;0.87;;;3.40;99.90;4.80;101248.00;;;;4998222;28;20752;-66
2023/12/02 13:56:24;;;;;;;1.93;1.83;;;3.10;99.90;5.60;101251.00;;;;4980948;28;20203;-66
2023/12/02 13:59:12;;;;;;;1.13;1.07;;;3.10;99.90;5.40;101241.00;;;;4990244;28;20557;-67
2023/12/02 14:02:10;;;;;;;1.53;1.43;;;3.20;99.90;5.60;101218.00;;;;5004308;28;20195;-67
2023/12/02 14:05:07;;;;;;;0.20;0.20;;;3.30;99.90;6.10;101270.00;;;;5035481;28;20245;-66
2023/12/02 14:08:20;;;;;;;0.60;0.60;;;3.50;99.90;6.00;101269.00;;;;5011812;28;20631;-66
2023/12/02 14:10:53;;;;;;;0.20;0.20;;;3.20;99.90;7.30;101259.00;;;;5008169;28;20585;-65
2023/12/02 14:13:59;;;;;;;0.33;0.33;;;3.80;99.90;6.60;101289.00;;;;5024653;28;20213;-65
2023/12/02 14:16:45;;;;;;;0.93;0.93;;;3.80;99.90;5.30;101292.00;;;;4936815;29;20201;-67
2023/12/02 14:19:47;;;;;;;0.57;0.57;;;3.40;99.90;5.60;101274.00;;;;4962287;28;20336;-66
2023/12/02 14:23:04;;;;;;;1.67;1.60;;;3.40;99.90;5.30;101283.00;;;;5028888;28;20211;-67
2023/12/02 14:26:01;;;;;;;2.43;2.23;;;3.30;99.90;5.50;101279.00;;;;4982525;28;20207;-67
2023/12/02 14:28:48;;;;;;;1.17;1.07;;;3.30;99.90;6.30;101291.00;;;;5008852;28;20211;-68
2023/12/02 14:32:24;;;;;;;2.00;1.90;;;3.50;99.90;6.60;101302.00;;;;4991294;28;20187;-68
2023/12/02 14:35:26;;;;;;;1.50;1.23;;;3.90;99.90;6.50;101306.00;;;;5007647;28;20677;-67
2023/12/02 14:38:20;;;;;;;0.20;0.20;;;3.80;99.90;6.10;101310.00;;;;5013805;28;20206;-68
2023/12/02 14:41:26;;;;;;;4.03;3.93;;;3.60;99.90;7.00;101298.00;;;;5013194;28;20201;-68
2023/12/02 14:44:30;;;;;;;4.07;2.67;;;3.50;99.90;6.80;101302.00;;;;5002590;28;20192;-67
2023/12/02 14:47:06;;;;;;;0.63;0.63;;;4.00;99.90;6.50;101313.00;;;;5030108;28;20191;-67
2023/12/02 14:49:55;;;;;;;0.30;0.30;;;3.90;99.90;6.20;101272.00;;;;4995734;28;20183;-67
2023/12/02 14:52:31;;;;;;;0.30;0.30;;;3.60;99.90;7.10;101306.00;;;;5010425;28;20627;-67
2023/12/02 14:55:10;;;;;;;0.83;0.83;;;3.80;99.90;7.00;101337.00;;;;5032859;28;20209;-66
2023/12/02 14:58:20;;;;;;;0.90;0.90;;;4.00;99.90;6.90;101340.00;;;;4995025;28;20198;-66
2023/12/02 15:01:03;;;;;;;0.30;0.30;;;3.90;99.90;6.70;101333.00;;;;5016246;28;20309;-66
2023/12/02 15:03:38;;;;;;;0.20;0.20;;;3.80;99.90;6.80;101324.00;;;;5008512;28;20769;-67
2023/12/02 15:06:15;;;;;;;0.20;0.20;;;3.70;99.90;7.20;101341.00;;;;5028504;28;20200;-66
2023/12/02 15:08:50;;;;;;;0.20;0.20;;;3.90;99.90;7.20;101330.00;;;;5011145;28;20185;-68
2023/12/02 15:11:28;;;;;;;0.93;0.93;;;3.90;99.90;7.40;101351.00;;;;4997924;28;20665;-66
2023/12/02 15:14:06;;;;;;;0.20;0.20;;;4.10;99.90;7.20;101357.00;;;;5008208;28;20207;-66
2023/12/02 15:16:38;;;;;;;0.63;0.63;;;4.00;99.90;6.60;101365.00;;;;4994984;28;20184;-65
2023/12/02 15:19:10;;;;;;;1.20;1.20;;;4.00;99.90;6.60;101323.00;;;;5032233;28;20243;-67
2023/12/02 15:22:16;;;;;;;0.30;0.30;;;3.80;99.90;6.50;101361.00;;;;5037145;28;20250;-68
2023/12/02 15:24:51;;;;;;;0.20;0.20;;;3.70;99.90;6.80;101360.00;;;;5015059;28;20193;-68
2023/12/02 15:27:43;;;;;;;0.43;0.43;;;3.80;99.90;7.30;101371.00;;;;5031364;28;20199;-66
2023/12/02 15:30:15;;;;;;;0.30;0.30;;;3.90;99.90;7.90;101373.00;;;;5011859;28;20214;-66
2023/12/02 15:32:58;;;;;;;0.60;0.60;;;4.20;99.90;6.60;101378.00;;;;5024485;28;20241;-68
2023/12/02 15:35:29;;;;;;;1.90;1.27;;;4.10;99.90;6.90;101380.00;;;;5024277;28;20290;-65
2023/12/02 15:37:57;;;;;;;0.20;0.20;;;3.80;99.90;7.40;101376.00;;;;5018009;28;20281;-66
2023/12/02 15:40:30;;;;;;;0.77;0.77;;;3.90;99.90;7.50;101387.00;;;;5032298;28;20238;-65
2023/12/02 15:42:57;;;;;;;0.20;0.20;;;4.00;99.90;7.40;101404.00;;;;5031134;28;20222;-66
2023/12/02 15:45:29;;;;;;;0.20;0.20;;;4.00;99.90;7.30;101394.00;;;;5034447;28;20210;-66
2023/12/02 15:47:55;;;;;;;0.30;0.30;;;4.00;99.90;7.40;101410.00;;;;5032247;28;20566;-65
2023/12/02 15:50:21;;;;;;;0.20;0.20;;;3.90;99.90;7.30;101422.00;;;;5034029;28;20240;-65
2023/12/02 15:52:48;;;;;;;1.33;1.33;;;3.90;99.90;7.20;101414.00;;;;5016774;28;20639;-66
2023/12/02 15:55:18;;;;;;;0.20;0.20;;;3.80;99.90;7.10;101423.00;;;;5034960;28;20183;-65
2023/12/02 15:57:45;;;;;;;0.20;0.20;;;3.80;99.90;6.20;101417.00;;;;5014490;28;20237;-65
2023/12/02 16:00:14;;;;;;;0.40;0.40;;;3.40;99.90;5.90;101405.00;;;;5025465;28;20184;-65
2023/12/02 16:02:44;;;;;;;0.60;0.60;;;3.20;99.90;5.70;101397.00;;;;5033857;28;20195;-65
2023/12/02 16:05:14;;;;;;;0.33;0.33;;;3.10;99.90;5.70;101388.00;;;;5038204;28;20315;-66
2023/12/02 16:07:42;;;;;;;1.20;0.90;;;2.90;99.90;4.80;101389.00;;;;5034349;28;20190;-65
2023/12/02 16:10:17;;;;;;;0.87;0.87;;;2.80;99.90;5.10;101380.00;;;;5038559;28;20198;-68
2023/12/02 16:12:46;;;;;;;0.20;0.20;;;2.60;99.90;5.80;101387.00;;;;5034193;28;20224;-68
2023/12/02 16:15:16;;;;;;;0.20;0.20;;;2.80;99.90;5.90;101397.00;;;;5034833;28;20183;-67
2023/12/02 16:17:42;;;;;;;0.40;0.40;;;2.90;99.90;6.10;101408.00;;;;5034317;28;20187;-67
2023/12/02 16:20:14;;;;;;;0.63;0.60;;;3.00;99.90;6.10;101374.00;;;;5033529;28;20190;-67
2023/12/02 16:22:42;;;;;;;0.50;0.50;;;3.10;99.90;5.50;101399.00;;;;5032292;28;20213;-67
2023/12/02 16:25:08;;;;;;;0.80;0.80;;;3.00;99.90;5.70;101407.00;;;;5014131;28;20199;-68
2023/12/02 16:27:37;;;;;;;3.50;3.30;;;2.90;99.90;5.50;101371.00;;;;5031045;28;20183;-67
2023/12/02 16:30:04;;;;;;;18.90;17.50;;;2.80;99.90;5.80;101384.00;;;;5030129;28;20196;-67
2023/12/02 16:32:30;;;;;;;0.27;0.27;;;2.80;99.90;5.80;101423.00;;;;5020177;28;20358;-66
2023/12/02 16:34:56;;;;;;;0.50;0.50;;;2.80;99.90;5.90;101420.00;;;;5032132;28;20625;-67
2023/12/02 16:37:22;;;;;;;2.13;1.33;;;2.80;99.90;6.10;101430.00;;;;5030063;28;20688;-67
2023/12/02 16:39:51;;;;;;;0.30;0.30;;;2.90;99.90;5.90;101390.00;;;;5028329;28;20199;-67
2023/12/02 16:42:17;;;;;;;0.30;0.30;;;2.80;99.90;5.90;101392.00;;;;5013516;28;20278;-67
2023/12/02 16:44:51;;;;;;;0.40;0.40;;;2.90;99.90;6.30;101436.00;;;;5029450;28;20183;-67
2023/12/02 16:47:43;;;;;;;0.90;0.90;;;3.00;99.90;5.50;101399.00;;;;5029155;28;20347;-67
2023/12/02 16:50:27;;;;;;;2.47;2.37;;;2.80;99.90;5.60;101427.00;;;;5017610;28;20191;-67
2023/12/02 16:53:00;;;;;;;8.43;5.87;;;2.70;99.90;5.20;101431.00;;;;5016467;28;20206;-67
2023/12/02 16:55:52;;;;;;;0.83;0.83;;;2.70;99.90;5.60;101398.00;;;;5013376;28;20191;-67
2023/12/02 16:58:28;;;;;;;1.70;1.60;;;2.70;99.90;4.40;101424.00;;;;5005748;28;20280;-67
2023/12/02 17:00:59;;;;;;;1.03;1.00;;;2.40;99.90;5.00;101401.00;;;;5030970;28;20603;-67
2023/12/02 17:03:34;;;;;;;1.23;1.20;;;2.50;99.90;5.50;101431.00;;;;5017200;28;20194;-67
2023/12/02 17:06:18;;;;;;;0.40;0.40;;;2.50;99.90;4.50;101427.00;;;;5010818;28;20705;-67
2023/12/02 17:08:53;;;;;;;2.53;2.33;;;2.40;99.90;4.30;101409.00;;;;5032856;28;20187;-67
2023/12/02 17:11:25;;;;;;;0.20;0.20;;;2.10;99.90;4.40;101425.00;;;;5013515;28;20174;-67
2023/12/02 17:14:07;;;;;;;0.30;0.30;;;2.10;99.90;4.70;101418.00;;;;5032776;28;20194;-67
2023/12/02 17:16:43;;;;;;;0.20;0.20;;;2.20;99.90;5.30;101428.00;;;;5032617;28;20187;-67
2023/12/02 17:19:15;;;;;;;1.03;1.03;;;2.40;99.90;5.30;101429.00;;;;5037367;28;20178;-67
2023/12/02 17:21:59;;;;;;;1.43;1.40;;;2.50;99.90;5.30;101449.00;;;;5032461;28;20193;-67
2023/12/02 17:24:33;;;;;;;0.53;0.53;;;2.70;99.90;5.40;101435.00;;;;5021998;28;20530;-67
2023/12/02 17:27:21;;;;;;;0.30;0.30;;;2.60;99.90;5.70;101419.00;;;;5013904;28;20382;-68
2023/12/02 17:29:56;;;;;;;4.60;2.30;;;2.60;99.90;4.20;101432.00;;;;5026448;28;20220;-68
2023/12/02 17:32:27;;;;;;;0.57;0.57;;;2.50;99.90;5.00;101425.00;;;;5006323;28;20584;-68
2023/12/02 17:35:08;;;;;;;0.30;0.30;;;2.50;99.90;6.00;101430.00;;;;5031923;28;20195;-69
2023/12/02 17:37:39;;;;;;;2.20;1.80;;;2.70;99.90;6.00;101429.00;;;;5015890;28;20214;-69
2023/12/02 17:40:19;;;;;;;0.70;0.70;;;3.00;99.90;5.50;101443.00;;;;5033607;28;20187;-69
2023/12/02 17:42:50;;;;;;;4.70;1.97;;;2.90;99.90;5.10;101399.00;;;;5015827;28;20190;-68
2023/12/02 17:45:42;;;;;;;2.07;2.00;;;2.70;99.90;4.30;101428.00;;;;5037925;28;20187;-67
2023/12/02 17:48:43;;;;;;;5.73;5.07;;;2.40;99.90;3.80;101423.00;;;;5028361;28;20207;-68
2023/12/02 17:51:37;;;;;;;2.10;2.03;;;2.20;99.90;4.30;101357.00;;;;5009988;28;20182;-68
2023/12/02 17:54:51;;;;;;;2.23;2.10;;;2.00;99.90;4.80;101425.00;;;;5008810;28;20195;-68
2023/12/02 17:57:42;;;;;;;2.90;2.43;;;2.50;99.90;4.70;101409.00;;;;5042555;28;20261;-68
2023/12/02 18:00:28;;;;;;;1.77;1.70;;;2.40;99.90;4.70;101385.00;;;;5033081;28;20585;-68
2023/12/02 18:03:12;;;;;;;0.70;0.70;;;2.30;99.90;5.80;101431.00;;;;5030743;28;20308;-68
2023/12/02 18:06:01;;;;;;;0.30;0.30;;;2.70;99.90;5.40;101424.00;;;;5028512;28;20187;-68
2023/12/02 18:08:27;;;;;;;1.27;1.27;;;2.70;99.90;4.80;101432.00;;;;5033615;28;20326;-68
2023/12/02 18:10:54;;;;;;;1.47;1.37;;;2.60;99.90;5.70;101438.00;;;;5033351;28;20538;-68
2023/12/02 18:13:58;;;;;;;20.27;12.60;;;3.00;99.90;4.00;101399.00;;;;5028600;28;20215;-68
2023/12/02 18:17:05;;;;;;;1.53;1.53;;;2.50;99.90;4.10;101420.00;;;;5041914;28;20186;-68
2023/12/02 18:19:54;;;;;;;4.30;3.37;;;2.30;99.90;3.00;101419.00;;;;5015860;28;20183;-68
2023/12/02 18:22:45;;;;;;;12.70;4.43;;;2.00;99.90;2.60;101419.00;;;;5027532;28;20194;-68
2023/12/02 18:25:31;;;;;;;8.27;5.40;;;1.80;99.90;3.70;101384.00;;;;5031292;28;20227;-68
2023/12/02 18:28:02;;;;;;;7.13;4.03;;;1.80;99.90;3.70;101422.00;;;;5002272;28;20214;-68
2023/12/02 18:30:42;;;;;;;2.90;1.67;;;2.10;99.90;3.30;101372.00;;;;5009047;28;20285;-68
2023/12/02 18:33:08;;;;;;;3.67;3.37;;;1.90;99.90;4.20;101417.00;;;;5032469;28;20217;-68
2023/12/02 18:35:34;;;;;;;0.80;0.80;;;2.10;99.90;4.20;101410.00;;;;5033412;28;20549;-68
2023/12/02 18:38:00;;;;;;;0.87;0.87;;;2.30;99.90;5.00;101407.00;;;;5053230;28;20186;-68
2023/12/02 18:40:29;;;;;;;1.47;1.37;;;2.60;99.90;3.70;101410.00;;;;5026319;28;20692;-68
2023/12/02 18:42:55;;;;;;;0.53;0.53;;;2.30;99.90;4.80;101418.00;;;;5023117;28;20620;-69
2023/12/02 18:45:29;;;;;;;0.30;0.30;;;2.40;99.90;4.70;101408.00;;;;5044152;28;20182;-69
2023/12/02 18:48:03;;;;;;;2.80;2.60;;;2.40;99.90;5.10;101431.00;;;;5014326;28;20269;-68
2023/12/02 18:50:32;;;;;;;0.30;0.30;;;2.70;99.90;4.90;101425.00;;;;5052353;28;20205;-68
2023/12/02 18:53:03;;;;;;;0.30;0.30;;;2.60;99.90;5.60;101419.00;;;;5032233;28;20281;-68
2023/12/02 18:55:37;;;;;;;0.67;0.67;;;3.00;99.90;5.30;101435.00;;;;5038934;28;20666;-68
2023/12/02 18:58:09;;;;;;;1.03;1.00;;;3.00;99.90;5.60;101440.00;;;;5029253;28;20197;-68
2023/12/02 19:00:35;;;;;;;0.30;0.30;;;3.20;99.90;5.00;101451.00;;;;5056111;28;20190;-68
2023/12/02 19:03:01;;;;;;;0.53;0.50;;;3.10;99.90;4.20;101446.00;;;;5041318;28;20531;-68
2023/12/02 19:05:28;;;;;;;0.30;0.30;;;2.70;99.90;5.40;101435.00;;;;5037207;28;20185;-68
2023/12/02 19:07:57;;;;;;;0.40;0.40;;;2.70;99.90;5.80;101449.00;;;;5038442;28;20190;-68
2023/12/02 19:10:31;;;;;;;1.03;0.90;;;3.00;99.90;6.20;101440.00;;;;5028845;28;20189;-69
2023/12/02 19:13:02;;;;;;;0.30;0.30;;;3.30;99.90;5.80;101449.00;;;;5034446;28;20290;-68
2023/12/02 19:15:28;;;;;;;0.30;0.30;;;3.40;99.90;6.60;101415.00;;;;5049225;28;20255;-68
2023/12/02 19:17:55;;;;;;;0.40;0.40;;;3.60;99.90;5.90;101456.00;;;;5038274;28;20182;-68